createdAt,value
2018-01-01T00:00:26.931Z,11.11
2018-01-01T00:01:26.946Z,11.18
2018-01-01T00:02:26.962Z,11.15
2018-01-01T00:03:26.998Z,10.96
2018-01-01T00:04:27.016Z,11.05
2018-01-01T00:05:27.013Z,11.12
2018-01-01T00:06:27.031Z,11.14
2018-01-01T00:07:27.044Z,11.11
2018-01-01T00:08:27.063Z,11.15
2018-01-01T00:09:27.078Z,11.14
2018-01-01T00:10:27.096Z,11.10
2018-01-01T00:11:27.110Z,11.15
2018-01-01T00:12:27.130Z,11.14
2018-01-01T00:13:27.143Z,11.19
2018-01-01T00:14:27.159Z,11.17
2018-01-01T00:15:27.177Z,10.97
2018-01-01T00:16:27.194Z,11.05
2018-01-01T00:17:27.211Z,10.94
2018-01-01T00:18:27.228Z,11.02
2018-01-01T00:19:27.246Z,10.99
2018-01-01T00:20:27.259Z,10.92
2018-01-01T00:21:27.279Z,11.11
2018-01-01T00:22:27.293Z,11.17
2018-01-01T00:23:27.310Z,11.04
2018-01-01T00:24:27.330Z,11.05
2018-01-01T00:25:27.343Z,11.04
2018-01-01T00:26:27.364Z,11.04
2018-01-01T00:27:27.375Z,10.94
2018-01-01T00:28:27.391Z,11.15
2018-01-01T00:29:27.413Z,11.12
2018-01-01T00:30:27.426Z,11.04
2018-01-01T00:31:27.459Z,10.97
2018-01-01T00:32:27.460Z,10.94
2018-01-01T00:33:27.475Z,11.07
2018-01-01T00:34:27.492Z,10.97
2018-01-01T00:35:27.511Z,10.99
2018-01-01T00:36:27.530Z,11.11
2018-01-01T00:37:27.544Z,10.97
2018-01-01T00:38:27.557Z,10.74
2018-01-01T00:39:27.580Z,10.75
2018-01-01T00:40:27.590Z,10.90
2018-01-01T00:41:27.608Z,10.89
2018-01-01T00:42:27.623Z,10.94
2018-01-01T00:43:27.639Z,10.86
2018-01-01T00:44:27.659Z,10.78
2018-01-01T00:45:27.672Z,10.87
2018-01-01T00:46:27.689Z,10.93
2018-01-01T00:47:27.705Z,10.90
2018-01-01T00:48:27.722Z,11.05
2018-01-01T00:49:27.739Z,10.90
2018-01-01T00:50:27.752Z,10.87
2018-01-01T00:51:27.770Z,10.86
2018-01-01T00:52:27.794Z,10.94
2018-01-01T00:53:27.802Z,10.90
2018-01-01T00:54:27.817Z,10.87
2018-01-01T00:55:27.843Z,10.72
2018-01-01T00:56:27.853Z,10.57
2018-01-01T00:57:27.869Z,10.68
2018-01-01T00:58:27.887Z,10.63
2018-01-01T00:59:27.905Z,10.67
2018-01-01T01:00:27.918Z,10.64
2018-01-01T01:01:27.942Z,10.74
2018-01-01T01:02:27.950Z,10.81
2018-01-01T01:03:27.971Z,10.75
2018-01-01T01:04:27.985Z,10.72
2018-01-01T01:05:27.997Z,10.74
2018-01-01T01:06:28.015Z,10.68
2018-01-01T01:07:28.031Z,10.74
2018-01-01T01:08:28.050Z,10.64
2018-01-01T01:09:28.069Z,10.59
2018-01-01T01:10:28.081Z,10.56
2018-01-01T01:11:28.098Z,10.59
2018-01-01T01:12:28.115Z,10.71
2018-01-01T01:13:28.131Z,10.57
2018-01-01T01:14:28.147Z,10.41
2018-01-01T01:15:28.161Z,10.44
2018-01-01T01:16:28.179Z,10.38
2018-01-01T01:17:28.195Z,10.51
2018-01-01T01:18:28.210Z,10.49
2018-01-01T01:19:28.227Z,10.31
2018-01-01T01:20:28.248Z,10.37
2018-01-01T01:21:28.257Z,10.26
2018-01-01T01:22:28.274Z,10.19
2018-01-01T01:23:28.292Z,10.26
2018-01-01T01:24:28.306Z,10.23
2018-01-01T01:25:28.323Z,10.12
2018-01-01T01:26:28.341Z,10.02
2018-01-01T01:27:28.356Z,10.20
2018-01-01T01:28:28.371Z,10.25
2018-01-01T01:29:28.388Z,10.09
2018-01-01T01:30:28.404Z,10.10
2018-01-01T01:31:28.418Z,10.16
2018-01-01T01:32:28.440Z,10.26
2018-01-01T01:33:28.451Z,10.33
2018-01-01T01:34:28.466Z,10.33
2018-01-01T01:35:28.484Z,10.41
2018-01-01T01:36:28.501Z,10.40
2018-01-01T01:37:28.522Z,10.13
2018-01-01T01:38:28.531Z,10.26
2018-01-01T01:39:28.550Z,10.23
2018-01-01T01:40:28.564Z,10.41
2018-01-01T01:41:28.583Z,10.31
2018-01-01T01:42:28.594Z,10.15
2018-01-01T01:43:28.613Z,10.13
2018-01-01T01:44:28.627Z,10.17
2018-01-01T01:45:28.642Z,10.15
2018-01-01T01:46:28.658Z,10.07
2018-01-01T01:47:28.675Z,10.15
2018-01-01T01:48:28.696Z,10.26
2018-01-01T01:49:28.708Z,10.09
2018-01-01T01:50:28.724Z,10.12
2018-01-01T01:51:28.739Z,10.05
2018-01-01T01:52:28.756Z,9.99
2018-01-01T01:53:28.768Z,10.05
2018-01-01T01:54:28.786Z,10.10
2018-01-01T01:55:28.823Z,10.15
2018-01-01T01:56:28.821Z,10.12
2018-01-01T01:57:28.836Z,10.07
2018-01-01T01:58:28.853Z,10.12
2018-01-01T01:59:28.866Z,10.12
2018-01-01T02:00:28.907Z,9.99
2018-01-01T02:01:28.897Z,9.99
2018-01-01T02:02:28.913Z,9.99
2018-01-01T02:03:28.930Z,9.86
2018-01-01T02:04:28.946Z,9.82
2018-01-01T02:05:28.961Z,10.04
2018-01-01T02:06:28.980Z,10.01
2018-01-01T02:07:28.993Z,9.98
2018-01-01T02:08:29.013Z,10.04
2018-01-01T02:09:29.023Z,9.98
2018-01-01T02:10:29.046Z,9.91
2018-01-01T02:11:29.059Z,9.80
2018-01-01T02:12:29.076Z,9.76
2018-01-01T02:13:29.085Z,9.86
2018-01-01T02:14:29.104Z,9.65
2018-01-01T02:15:29.120Z,9.79
2018-01-01T02:16:29.140Z,9.87
2018-01-01T02:17:29.149Z,9.66
2018-01-01T02:18:29.168Z,9.56
2018-01-01T02:19:29.184Z,9.55
2018-01-01T02:20:29.202Z,9.58
2018-01-01T02:21:29.216Z,9.56
2018-01-01T02:22:29.231Z,9.61
2018-01-01T02:23:29.249Z,9.66
2018-01-01T02:24:29.264Z,9.65
2018-01-01T02:25:29.293Z,9.61
2018-01-01T02:26:29.295Z,9.68
2018-01-01T02:27:29.308Z,9.51
2018-01-01T02:28:29.324Z,9.48
2018-01-01T02:29:29.341Z,9.51
2018-01-01T02:30:29.357Z,9.61
2018-01-01T02:31:29.374Z,9.65
2018-01-01T02:32:29.387Z,9.48
2018-01-01T02:33:29.401Z,9.48
2018-01-01T02:34:29.420Z,9.51
2018-01-01T02:35:29.435Z,9.55
2018-01-01T02:36:29.450Z,9.72
2018-01-01T02:37:29.483Z,9.73
2018-01-01T02:38:29.482Z,9.69
2018-01-01T02:39:29.505Z,9.80
2018-01-01T02:40:29.514Z,9.84
2018-01-01T02:41:29.529Z,9.77
2018-01-01T02:42:29.548Z,9.84
2018-01-01T02:43:29.559Z,9.86
2018-01-01T02:44:29.575Z,9.79
2018-01-01T02:45:29.593Z,9.73
2018-01-01T02:46:29.608Z,9.59
2018-01-01T02:47:29.626Z,9.64
2018-01-01T02:48:29.641Z,9.66
2018-01-01T02:49:29.654Z,9.82
2018-01-01T02:50:29.671Z,9.76
2018-01-01T02:51:29.689Z,9.77
2018-01-01T02:52:29.702Z,9.74
2018-01-01T02:53:29.724Z,9.76
2018-01-01T02:54:29.754Z,9.69
2018-01-01T02:55:29.750Z,9.73
2018-01-01T02:56:29.767Z,9.76
2018-01-01T02:57:29.781Z,9.66
2018-01-01T02:58:29.802Z,9.65
2018-01-01T02:59:29.815Z,9.50
2018-01-01T03:00:29.833Z,9.47
2018-01-01T03:01:29.844Z,9.55
2018-01-01T03:02:29.862Z,9.48
2018-01-01T03:03:29.884Z,9.54
2018-01-01T03:04:29.894Z,9.46
2018-01-01T03:05:29.911Z,9.55
2018-01-01T03:06:29.924Z,9.51
2018-01-01T03:07:29.941Z,9.55
2018-01-01T03:08:29.958Z,9.58
2018-01-01T03:09:29.970Z,9.48
2018-01-01T03:10:29.988Z,9.39
2018-01-01T03:11:30.003Z,9.43
2018-01-01T03:12:30.020Z,9.32
2018-01-01T03:13:30.034Z,9.47
2018-01-01T03:14:30.052Z,9.43
2018-01-01T03:15:30.064Z,9.40
2018-01-01T03:16:30.083Z,9.54
2018-01-01T03:17:30.096Z,9.43
2018-01-01T03:18:30.114Z,9.31
2018-01-01T03:19:30.126Z,9.46
2018-01-01T03:20:30.143Z,9.40
2018-01-01T03:21:30.159Z,9.39
2018-01-01T03:22:30.174Z,9.28
2018-01-01T03:23:30.189Z,9.22
2018-01-01T03:24:30.204Z,9.31
2018-01-01T03:25:30.219Z,9.31
2018-01-01T03:26:30.237Z,9.54
2018-01-01T03:27:30.251Z,9.40
2018-01-01T03:28:30.267Z,9.32
2018-01-01T03:29:30.283Z,9.31
2018-01-01T03:30:30.297Z,9.32
2018-01-01T03:31:30.313Z,9.44
2018-01-01T03:32:30.332Z,9.39
2018-01-01T03:33:30.343Z,9.36
2018-01-01T03:34:30.361Z,9.32
2018-01-01T03:35:30.380Z,9.37
2018-01-01T03:36:30.392Z,9.37
2018-01-01T03:37:30.405Z,9.43
2018-01-01T03:38:30.421Z,9.37
2018-01-01T03:39:30.437Z,9.32
2018-01-01T03:40:30.455Z,9.54
2018-01-01T03:41:30.467Z,9.43
2018-01-01T03:42:30.481Z,9.41
2018-01-01T03:43:30.499Z,9.55
2018-01-01T03:44:30.515Z,9.59
2018-01-01T03:45:30.531Z,9.61
2018-01-01T03:46:30.546Z,9.48
2018-01-01T03:47:30.562Z,9.51
2018-01-01T03:48:30.575Z,9.48
2018-01-01T03:49:30.592Z,9.56
2018-01-01T03:50:30.614Z,9.54
2018-01-01T03:51:30.622Z,9.59
2018-01-01T03:52:30.640Z,9.65
2018-01-01T03:53:30.655Z,9.54
2018-01-01T03:54:30.668Z,9.51
2018-01-01T03:55:30.685Z,9.62
2018-01-01T03:56:30.700Z,9.48
2018-01-01T03:57:30.718Z,9.59
2018-01-01T03:58:30.730Z,9.64
2018-01-01T03:59:30.755Z,9.66
2018-01-01T04:00:30.764Z,9.62
2018-01-01T04:01:30.779Z,9.61
2018-01-01T04:02:30.797Z,9.61
2018-01-01T04:03:30.810Z,9.59
2018-01-01T04:04:30.830Z,9.41
2018-01-01T04:05:30.845Z,9.41
2018-01-01T04:06:30.855Z,9.50
2018-01-01T04:07:30.871Z,9.61
2018-01-01T04:08:30.888Z,9.62
2018-01-01T04:09:30.912Z,9.61
2018-01-01T04:10:30.921Z,9.62
2018-01-01T04:11:30.933Z,9.76
2018-01-01T04:12:30.949Z,9.82
2018-01-01T04:13:30.965Z,9.74
2018-01-01T04:14:30.982Z,9.69
2018-01-01T04:15:30.995Z,9.72
2018-01-01T04:16:31.014Z,9.66
2018-01-01T04:17:31.028Z,9.69
2018-01-01T04:18:31.051Z,9.54
2018-01-01T04:19:31.066Z,9.50
2018-01-01T04:20:31.075Z,9.50
2018-01-01T04:21:31.090Z,9.54
2018-01-01T04:22:31.105Z,9.62
2018-01-01T04:23:31.123Z,9.62
2018-01-01T04:24:31.137Z,9.73
2018-01-01T04:25:31.156Z,9.59
2018-01-01T04:26:31.171Z,9.56
2018-01-01T04:27:31.185Z,9.69
2018-01-01T04:28:31.200Z,9.97
2018-01-01T04:29:31.213Z,9.91
2018-01-01T04:30:31.230Z,9.62
2018-01-01T04:31:31.245Z,9.80
2018-01-01T04:32:31.261Z,9.72
2018-01-01T04:33:31.276Z,9.58
2018-01-01T04:34:31.295Z,9.77
2018-01-01T04:35:31.309Z,9.73
2018-01-01T04:36:31.327Z,9.77
2018-01-01T04:37:31.340Z,9.55
2018-01-01T04:38:31.354Z,9.74
2018-01-01T04:39:31.372Z,9.83
2018-01-01T04:40:31.388Z,9.79
2018-01-01T04:41:31.402Z,9.62
2018-01-01T04:42:31.420Z,9.59
2018-01-01T04:43:31.435Z,9.64
2018-01-01T04:44:31.450Z,9.74
2018-01-01T04:45:31.466Z,9.65
2018-01-01T04:46:31.482Z,9.66
2018-01-01T04:47:31.497Z,9.84
2018-01-01T04:48:31.513Z,9.79
2018-01-01T04:49:31.528Z,9.79
2018-01-01T04:50:31.544Z,9.79
2018-01-01T04:51:31.562Z,9.80
2018-01-01T04:52:31.581Z,9.65
2018-01-01T04:53:31.591Z,9.55
2018-01-01T04:54:31.607Z,9.58
2018-01-01T04:55:31.621Z,9.56
2018-01-01T04:56:31.636Z,9.68
2018-01-01T04:57:31.652Z,9.73
2018-01-01T04:58:31.672Z,9.54
2018-01-01T04:59:31.685Z,9.61
2018-01-01T05:00:31.702Z,9.56
2018-01-01T05:01:31.714Z,9.54
2018-01-01T05:02:31.731Z,9.51
2018-01-01T05:03:31.751Z,9.56
2018-01-01T05:04:31.762Z,9.51
2018-01-01T05:05:31.779Z,9.46
2018-01-01T05:06:31.793Z,9.51
2018-01-01T05:07:31.808Z,9.59
2018-01-01T05:08:31.824Z,9.66
2018-01-01T05:09:31.842Z,9.73
2018-01-01T05:10:31.854Z,9.61
2018-01-01T05:11:31.874Z,9.64
2018-01-01T05:12:31.889Z,9.69
2018-01-01T05:13:31.901Z,9.56
2018-01-01T05:14:31.921Z,9.62
2018-01-01T05:15:31.936Z,9.62
2018-01-01T05:16:31.952Z,9.74
2018-01-01T05:17:31.965Z,9.62
2018-01-01T05:18:31.983Z,9.64
2018-01-01T05:19:31.999Z,9.73
2018-01-01T05:20:32.013Z,9.62
2018-01-01T05:21:32.026Z,9.68
2018-01-01T05:22:32.042Z,9.76
2018-01-01T05:23:32.062Z,9.74
2018-01-01T05:24:32.078Z,9.72
2018-01-01T05:25:32.089Z,9.64
2018-01-01T05:26:32.109Z,9.59
2018-01-01T05:27:32.121Z,9.59
2018-01-01T05:28:32.137Z,9.56
2018-01-01T05:29:32.152Z,9.47
2018-01-01T05:30:32.168Z,9.56
2018-01-01T05:31:32.187Z,9.59
2018-01-01T05:32:32.198Z,9.61
2018-01-01T05:33:32.214Z,9.65
2018-01-01T05:34:32.231Z,9.56
2018-01-01T05:35:32.298Z,9.44
2018-01-01T05:36:32.266Z,9.34
2018-01-01T05:37:32.278Z,9.41
2018-01-01T05:38:32.300Z,9.39
2018-01-01T05:39:32.334Z,9.64
2018-01-01T05:40:32.325Z,9.34
2018-01-01T05:41:32.340Z,9.51
2018-01-01T05:42:32.355Z,9.32
2018-01-01T05:43:32.372Z,9.32
2018-01-01T05:44:32.389Z,9.28
2018-01-01T05:45:32.403Z,9.19
2018-01-01T05:46:32.418Z,9.22
2018-01-01T05:47:32.438Z,9.34
2018-01-01T05:48:32.451Z,9.23
2018-01-01T05:49:32.465Z,9.06
2018-01-01T05:50:32.478Z,9.11
2018-01-01T05:51:32.496Z,9.11
2018-01-01T05:52:32.512Z,9.13
2018-01-01T05:53:32.529Z,9.21
2018-01-01T05:54:32.543Z,9.08
2018-01-01T05:55:32.556Z,9.16
2018-01-01T05:56:32.575Z,9.10
2018-01-01T05:57:32.589Z,8.95
2018-01-01T05:58:32.604Z,9.08
2018-01-01T05:59:32.621Z,8.91
2018-01-01T06:00:32.638Z,8.91
2018-01-01T06:01:32.652Z,8.87
2018-01-01T06:02:32.664Z,8.92
2018-01-01T06:03:32.680Z,8.94
2018-01-01T06:04:32.696Z,9.03
2018-01-01T06:05:32.714Z,9.03
2018-01-01T06:06:32.728Z,8.92
2018-01-01T06:07:32.743Z,8.99
2018-01-01T06:08:32.758Z,8.97
2018-01-01T06:09:32.777Z,9.03
2018-01-01T06:10:32.790Z,9.00
2018-01-01T06:11:32.805Z,8.94
2018-01-01T06:12:32.823Z,9.14
2018-01-01T06:13:32.834Z,9.03
2018-01-01T06:14:32.851Z,9.16
2018-01-01T06:15:32.867Z,9.02
2018-01-01T06:16:32.882Z,9.03
2018-01-01T06:17:32.894Z,9.10
2018-01-01T06:18:32.914Z,9.04
2018-01-01T06:19:32.927Z,9.11
2018-01-01T06:20:32.942Z,9.16
2018-01-01T06:21:32.959Z,9.11
2018-01-01T06:22:32.971Z,9.25
2018-01-01T06:23:32.988Z,9.21
2018-01-01T06:24:33.005Z,9.22
2018-01-01T06:25:33.018Z,9.26
2018-01-01T06:26:33.034Z,9.41
2018-01-01T06:27:33.051Z,9.37
2018-01-01T06:28:33.065Z,9.25
2018-01-01T06:29:33.082Z,9.14
2018-01-01T06:30:33.095Z,9.26
2018-01-01T06:31:33.109Z,9.22
2018-01-01T06:32:33.125Z,9.26
2018-01-01T06:33:33.138Z,9.16
2018-01-01T06:34:33.156Z,9.26
2018-01-01T06:35:33.172Z,9.32
2018-01-01T06:36:33.223Z,9.54
2018-01-01T06:37:33.200Z,9.54
2018-01-01T06:38:33.217Z,9.31
2018-01-01T06:39:33.233Z,9.26
2018-01-01T06:40:33.248Z,9.37
2018-01-01T06:41:33.263Z,9.44
2018-01-01T06:42:33.279Z,9.26
2018-01-01T06:43:33.297Z,9.29
2018-01-01T06:44:33.310Z,9.37
2018-01-01T06:45:33.324Z,9.18
2018-01-01T06:46:33.343Z,9.36
2018-01-01T06:47:33.358Z,9.39
2018-01-01T06:48:33.375Z,9.28
2018-01-01T06:49:33.388Z,9.29
2018-01-01T06:50:33.403Z,9.37
2018-01-01T06:51:33.417Z,9.37
2018-01-01T06:52:33.435Z,9.21
2018-01-01T06:53:33.447Z,9.14
2018-01-01T06:54:33.465Z,9.06
2018-01-01T06:55:33.481Z,9.10
2018-01-01T06:56:33.497Z,9.13
2018-01-01T06:57:33.512Z,9.25
2018-01-01T06:58:33.525Z,9.14
2018-01-01T06:59:33.545Z,9.14
2018-01-01T07:00:33.558Z,9.18
2018-01-01T07:01:33.575Z,9.22
2018-01-01T07:02:33.589Z,9.11
2018-01-01T07:03:33.606Z,9.10
2018-01-01T07:04:33.620Z,9.14
2018-01-01T07:05:33.636Z,9.16
2018-01-01T07:06:33.652Z,9.23
2018-01-01T07:07:33.669Z,9.26
2018-01-01T07:08:33.682Z,9.14
2018-01-01T07:09:33.698Z,9.11
2018-01-01T07:10:33.712Z,9.10
2018-01-01T07:11:33.734Z,9.06
2018-01-01T07:12:33.743Z,9.03
2018-01-01T07:13:33.760Z,9.22
2018-01-01T07:14:33.776Z,9.03
2018-01-01T07:15:33.789Z,8.97
2018-01-01T07:16:33.806Z,9.08
2018-01-01T07:17:33.819Z,9.18
2018-01-01T07:18:33.837Z,9.08
2018-01-01T07:19:33.851Z,9.13
2018-01-01T07:20:33.867Z,9.16
2018-01-01T07:21:33.883Z,9.18
2018-01-01T07:22:33.897Z,9.02
2018-01-01T07:23:33.913Z,9.16
2018-01-01T07:24:33.930Z,9.16
2018-01-01T07:25:33.946Z,9.14
2018-01-01T07:26:33.964Z,9.08
2018-01-01T07:27:33.977Z,9.10
2018-01-01T07:28:33.991Z,8.89
2018-01-01T07:29:34.011Z,8.69
2018-01-01T07:30:34.028Z,8.85
2018-01-01T07:31:34.040Z,8.85
2018-01-01T07:32:34.058Z,8.82
2018-01-01T07:33:34.068Z,8.95
2018-01-01T07:34:34.082Z,8.91
2018-01-01T07:35:34.101Z,8.76
2018-01-01T07:36:34.114Z,8.82
2018-01-01T07:37:34.127Z,8.76
2018-01-01T07:38:34.148Z,8.85
2018-01-01T07:39:34.158Z,8.78
2018-01-01T07:40:34.177Z,8.85
2018-01-01T07:41:34.189Z,8.85
2018-01-01T07:42:34.212Z,9.04
2018-01-01T07:43:34.220Z,9.11
2018-01-01T07:44:34.235Z,8.99
2018-01-01T07:45:34.251Z,8.91
2018-01-01T07:46:34.275Z,8.97
2018-01-01T07:47:34.286Z,8.97
2018-01-01T07:48:34.301Z,9.08
2018-01-01T07:49:34.314Z,9.11
2018-01-01T07:50:34.328Z,9.10
2018-01-01T07:51:34.343Z,9.23
2018-01-01T07:52:34.360Z,9.37
2018-01-01T07:53:34.374Z,9.44
2018-01-01T07:54:34.395Z,9.54
2018-01-01T07:55:34.405Z,9.61
2018-01-01T07:56:34.423Z,9.72
2018-01-01T07:57:34.436Z,9.73
2018-01-01T07:58:34.452Z,9.59
2018-01-01T07:59:34.465Z,9.65
2018-01-01T08:00:34.483Z,9.26
2018-01-01T08:01:34.498Z,9.23
2018-01-01T08:02:34.517Z,9.25
2018-01-01T08:03:34.530Z,9.26
2018-01-01T08:04:34.546Z,9.46
2018-01-01T08:05:34.562Z,9.48
2018-01-01T08:06:34.575Z,9.46
2018-01-01T08:07:34.592Z,9.47
2018-01-01T08:08:34.606Z,9.41
2018-01-01T08:09:34.625Z,9.47
2018-01-01T08:10:34.678Z,9.54
2018-01-01T08:11:34.684Z,9.40
2018-01-01T08:12:34.669Z,9.32
2018-01-01T08:13:34.690Z,9.10
2018-01-01T08:14:34.701Z,9.16
2018-01-01T08:15:34.718Z,9.08
2018-01-01T08:16:34.733Z,9.11
2018-01-01T08:17:34.749Z,9.14
2018-01-01T08:18:34.765Z,8.92
2018-01-01T08:19:34.778Z,8.84
2018-01-01T08:20:34.794Z,9.00
2018-01-01T08:21:34.810Z,9.10
2018-01-01T08:22:34.823Z,9.08
2018-01-01T08:23:34.841Z,9.08
2018-01-01T08:24:34.856Z,9.00
2018-01-01T08:25:34.876Z,8.95
2018-01-01T08:26:34.886Z,8.94
2018-01-01T08:27:34.902Z,9.13
2018-01-01T08:28:34.922Z,9.14
2018-01-01T08:29:34.934Z,9.18
2018-01-01T08:30:34.949Z,9.36
2018-01-01T08:31:34.964Z,9.22
2018-01-01T08:32:34.979Z,9.28
2018-01-01T08:33:34.994Z,9.32
2018-01-01T08:34:35.013Z,9.40
2018-01-01T08:35:35.029Z,9.44
2018-01-01T08:36:35.041Z,9.29
2018-01-01T08:37:35.057Z,9.43
2018-01-01T08:38:35.074Z,9.44
2018-01-01T08:39:35.091Z,9.54
2018-01-01T08:40:35.112Z,9.44
2018-01-01T08:41:35.124Z,9.62
2018-01-01T08:42:35.136Z,9.73
2018-01-01T08:43:35.153Z,9.82
2018-01-01T08:44:35.167Z,9.77
2018-01-01T08:45:35.182Z,9.76
2018-01-01T08:46:35.201Z,9.66
2018-01-01T08:47:35.216Z,9.54
2018-01-01T08:48:35.236Z,9.68
2018-01-01T08:49:35.245Z,9.61
2018-01-01T08:50:35.262Z,9.65
2018-01-01T08:51:35.280Z,9.73
2018-01-01T08:52:35.295Z,9.74
2018-01-01T08:53:35.312Z,9.82
2018-01-01T08:54:35.325Z,9.76
2018-01-01T08:55:35.340Z,9.65
2018-01-01T08:56:35.357Z,9.65
2018-01-01T08:57:35.372Z,9.56
2018-01-01T08:58:35.390Z,9.64
2018-01-01T08:59:35.403Z,9.51
2018-01-01T09:00:35.417Z,9.64
2018-01-01T09:01:35.434Z,9.51
2018-01-01T09:02:35.448Z,9.36
2018-01-01T09:03:35.464Z,9.36
2018-01-01T09:04:35.483Z,9.18
2018-01-01T09:05:35.497Z,9.19
2018-01-01T09:06:35.514Z,9.23
2018-01-01T09:07:35.567Z,9.21
2018-01-01T09:08:35.543Z,9.16
2018-01-01T09:09:35.566Z,9.28
2018-01-01T09:10:35.577Z,9.28
2018-01-01T09:11:35.590Z,9.26
2018-01-01T09:12:35.606Z,9.56
2018-01-01T09:13:35.622Z,9.43
2018-01-01T09:14:35.636Z,9.39
2018-01-01T09:15:35.652Z,9.50
2018-01-01T09:16:35.671Z,9.47
2018-01-01T09:17:35.693Z,9.48
2018-01-01T09:18:35.700Z,9.61
2018-01-01T09:19:35.715Z,9.65
2018-01-01T09:20:35.730Z,9.65
2018-01-01T09:21:35.748Z,9.54
2018-01-01T09:22:35.768Z,9.50
2018-01-01T09:23:35.840Z,9.43
2018-01-01T09:24:35.797Z,9.61
2018-01-01T09:25:35.811Z,9.82
2018-01-01T09:26:35.827Z,9.44
2018-01-01T09:27:35.842Z,9.54
2018-01-01T09:28:35.859Z,9.50
2018-01-01T09:29:35.874Z,9.64
2018-01-01T09:30:35.888Z,9.41
2018-01-01T09:31:35.905Z,9.40
2018-01-01T09:32:35.920Z,9.47
2018-01-01T09:33:35.935Z,9.64
2018-01-01T09:34:35.955Z,9.82
2018-01-01T09:35:35.967Z,9.72
2018-01-01T09:36:35.985Z,9.59
2018-01-01T09:37:35.998Z,9.77
2018-01-01T09:38:36.017Z,9.98
2018-01-01T09:39:36.033Z,9.89
2018-01-01T09:40:36.046Z,9.84
2018-01-01T09:41:36.066Z,9.56
2018-01-01T09:42:36.082Z,9.32
2018-01-01T09:43:36.098Z,8.97
2018-01-01T09:44:36.133Z,9.19
2018-01-01T09:45:36.126Z,9.40
2018-01-01T09:46:36.141Z,9.43
2018-01-01T09:47:36.340Z,9.55
2018-01-01T09:48:36.175Z,9.46
2018-01-01T09:49:36.187Z,9.39
2018-01-01T09:50:36.207Z,9.40
2018-01-01T09:51:36.232Z,9.34
2018-01-01T09:52:36.244Z,9.25
2018-01-01T09:53:36.254Z,9.29
2018-01-01T09:54:36.268Z,9.31
2018-01-01T09:55:36.287Z,9.55
2018-01-01T09:56:36.302Z,9.41
2018-01-01T09:57:36.418Z,9.54
2018-01-01T09:58:36.333Z,9.55
2018-01-01T09:59:36.346Z,9.61
2018-01-01T10:00:36.364Z,9.61
2018-01-01T10:01:36.397Z,9.64
2018-01-01T10:02:36.441Z,9.46
2018-01-01T10:03:36.410Z,9.68
2018-01-01T10:04:36.469Z,9.62
2018-01-01T10:05:36.447Z,9.37
2018-01-01T10:06:36.472Z,9.34
2018-01-01T10:07:36.477Z,9.31
2018-01-01T10:08:36.490Z,9.47
2018-01-01T10:09:36.505Z,9.77
2018-01-01T10:10:36.519Z,9.87
2018-01-01T10:11:36.534Z,9.98
2018-01-01T10:12:36.551Z,10.01
2018-01-01T10:13:36.569Z,10.05
2018-01-01T10:14:36.583Z,9.89
2018-01-01T10:15:36.599Z,9.87
2018-01-01T10:16:36.658Z,9.97
2018-01-01T10:17:36.631Z,10.05
2018-01-01T10:18:36.666Z,10.17
2018-01-01T10:19:36.688Z,9.98
2018-01-01T10:20:36.678Z,9.87
2018-01-01T10:21:36.695Z,10.01
2018-01-01T10:22:36.714Z,10.12
2018-01-01T10:23:36.727Z,10.05
2018-01-01T10:24:36.741Z,10.16
2018-01-01T10:25:36.758Z,10.17
2018-01-01T10:26:36.775Z,10.12
2018-01-01T10:27:36.789Z,10.13
2018-01-01T10:28:36.813Z,10.23
2018-01-01T10:29:36.824Z,10.25
2018-01-01T10:30:36.837Z,10.35
2018-01-01T10:31:36.854Z,10.53
2018-01-01T10:32:36.871Z,10.57
2018-01-01T10:33:36.886Z,10.59
2018-01-01T10:34:36.916Z,10.40
2018-01-01T10:35:36.920Z,10.48
2018-01-01T10:36:36.949Z,10.49
2018-01-01T10:37:36.955Z,10.53
2018-01-01T10:38:36.969Z,10.61
2018-01-01T10:39:36.986Z,10.54
2018-01-01T10:40:37.003Z,10.35
2018-01-01T10:41:37.015Z,10.41
2018-01-01T10:42:37.053Z,10.60
2018-01-01T10:43:37.050Z,10.78
2018-01-01T10:44:37.069Z,10.89
2018-01-01T10:45:37.082Z,10.93
2018-01-01T10:46:37.104Z,10.92
2018-01-01T10:47:37.117Z,11.07
2018-01-01T10:48:37.131Z,11.17
2018-01-01T10:49:37.147Z,10.71
2018-01-01T10:50:37.165Z,10.79
2018-01-01T10:51:37.181Z,11.05
2018-01-01T10:52:37.200Z,11.11
2018-01-01T10:53:37.214Z,11.12
2018-01-01T10:54:37.230Z,11.00
2018-01-01T10:55:37.250Z,11.11
2018-01-01T10:56:37.265Z,10.89
2018-01-01T10:57:37.283Z,10.76
2018-01-01T10:58:37.297Z,10.76
2018-01-01T10:59:37.315Z,11.00
2018-01-01T11:00:37.332Z,11.18
2018-01-01T11:01:37.362Z,11.00
2018-01-01T11:02:37.365Z,11.04
2018-01-01T11:03:37.381Z,10.89
2018-01-01T11:04:37.398Z,11.15
2018-01-01T11:05:37.416Z,11.05
2018-01-01T11:06:37.431Z,11.04
2018-01-01T11:07:37.449Z,10.90
2018-01-01T11:08:37.466Z,10.90
2018-01-01T11:09:37.493Z,10.94
2018-01-01T11:10:37.497Z,10.59
2018-01-01T11:11:37.514Z,10.67
2018-01-01T11:12:37.528Z,10.59
2018-01-01T11:13:37.545Z,10.67
2018-01-01T11:14:37.562Z,10.54
2018-01-01T11:15:37.579Z,10.54
2018-01-01T11:16:37.643Z,10.54
2018-01-01T11:17:37.611Z,10.31
2018-01-01T11:18:37.633Z,10.30
2018-01-01T11:19:37.645Z,10.12
2018-01-01T11:20:37.660Z,10.25
2018-01-01T11:21:37.676Z,10.30
2018-01-01T11:22:37.704Z,10.02
2018-01-01T11:23:37.714Z,9.98
2018-01-01T11:24:37.727Z,10.17
2018-01-01T11:25:37.741Z,10.12
2018-01-01T11:26:37.760Z,10.09
2018-01-01T11:27:37.778Z,10.25
2018-01-01T11:28:37.797Z,10.17
2018-01-01T11:29:37.805Z,10.07
2018-01-01T11:30:37.824Z,9.98
2018-01-01T11:31:37.840Z,9.89
2018-01-01T11:32:37.857Z,9.47
2018-01-01T11:33:37.871Z,9.34
2018-01-01T11:34:37.948Z,9.14
2018-01-01T11:35:37.906Z,9.00
2018-01-01T11:36:37.918Z,9.00
2018-01-01T11:37:37.936Z,9.10
2018-01-01T11:38:37.953Z,9.14
2018-01-01T11:39:37.969Z,9.26
2018-01-01T11:40:37.987Z,9.16
2018-01-01T11:41:37.999Z,9.14
2018-01-01T11:42:38.015Z,9.11
2018-01-01T11:43:38.032Z,9.03
2018-01-01T11:44:38.053Z,9.13
2018-01-01T11:45:38.062Z,9.22
2018-01-01T11:46:38.079Z,9.41
2018-01-01T11:47:38.095Z,9.48
2018-01-01T11:48:38.111Z,9.68
2018-01-01T11:49:38.125Z,9.31
2018-01-01T11:50:38.142Z,9.55
2018-01-01T11:51:38.159Z,9.54
2018-01-01T11:52:38.177Z,9.48
2018-01-01T11:53:38.191Z,9.59
2018-01-01T11:54:38.206Z,9.61
2018-01-01T11:55:38.221Z,9.83
2018-01-01T11:56:38.239Z,9.72
2018-01-01T11:57:38.313Z,9.54
2018-01-01T11:58:38.284Z,9.58
2018-01-01T11:59:38.286Z,9.50
2018-01-01T12:00:38.303Z,9.77
2018-01-01T12:01:38.318Z,9.92
2018-01-01T12:02:38.333Z,10.02
2018-01-01T12:03:38.348Z,9.76
2018-01-01T12:04:38.368Z,9.72
2018-01-01T12:05:38.385Z,9.72
2018-01-01T12:06:38.398Z,9.87
2018-01-01T12:07:38.413Z,10.26
2018-01-01T12:08:38.429Z,10.12
2018-01-01T12:09:38.468Z,9.82
2018-01-01T12:10:38.462Z,9.80
2018-01-01T12:11:38.478Z,9.72
2018-01-01T12:12:38.495Z,9.73
2018-01-01T12:13:38.508Z,9.61
2018-01-01T12:14:38.526Z,9.89
2018-01-01T12:15:38.543Z,9.82
2018-01-01T12:16:38.567Z,9.91
2018-01-01T12:17:38.573Z,9.76
2018-01-01T12:18:38.591Z,9.55
2018-01-01T12:19:38.613Z,9.64
2018-01-01T12:20:38.621Z,9.76
2018-01-01T12:21:38.636Z,9.82
2018-01-01T12:22:38.655Z,9.95
2018-01-01T12:23:38.673Z,9.84
2018-01-01T12:24:38.685Z,10.07
2018-01-01T12:25:38.701Z,10.10
2018-01-01T12:26:38.722Z,10.05
2018-01-01T12:27:38.746Z,10.13
2018-01-01T12:28:38.750Z,10.04
2018-01-01T12:29:38.775Z,9.80
2018-01-01T12:30:38.782Z,10.15
2018-01-01T12:31:38.800Z,10.02
2018-01-01T12:32:38.818Z,10.26
2018-01-01T12:33:38.834Z,10.26
2018-01-01T12:34:38.850Z,10.34
2018-01-01T12:35:38.866Z,10.22
2018-01-01T12:36:38.880Z,10.31
2018-01-01T12:37:38.898Z,10.17
2018-01-01T12:38:38.916Z,10.01
2018-01-01T12:39:39.010Z,10.16
2018-01-01T12:40:39.090Z,10.41
2018-01-01T12:41:38.995Z,10.46
2018-01-01T12:42:39.089Z,10.26
2018-01-01T12:43:39.057Z,10.13
2018-01-01T12:44:39.125Z,10.25
2018-01-01T12:45:39.194Z,10.13
2018-01-01T12:46:39.056Z,9.84
2018-01-01T12:47:39.118Z,10.13
2018-01-01T12:48:39.164Z,10.15
2018-01-01T12:49:39.163Z,10.26
2018-01-01T12:50:39.147Z,10.37
2018-01-01T12:51:39.191Z,10.38
2018-01-01T12:52:39.143Z,10.26
2018-01-01T12:53:39.219Z,10.33
2018-01-01T12:54:39.179Z,10.26
2018-01-01T12:55:39.195Z,10.12
2018-01-01T12:56:39.209Z,9.98
2018-01-01T12:57:39.223Z,9.92
2018-01-01T12:58:39.241Z,9.95
2018-01-01T12:59:39.258Z,9.80
2018-01-01T13:00:39.274Z,9.83
2018-01-01T13:01:39.290Z,9.86
2018-01-01T13:02:39.307Z,9.89
2018-01-01T13:03:39.322Z,9.98
2018-01-01T13:04:39.341Z,10.15
2018-01-01T13:05:39.353Z,10.20
2018-01-01T13:06:39.376Z,10.28
2018-01-01T13:07:39.387Z,10.17
2018-01-01T13:08:39.406Z,10.04
2018-01-01T13:09:39.419Z,10.12
2018-01-01T13:10:39.522Z,10.38